Terminal Aerodrome Forecast
Issued by NWS

Home | Current Version | Previous Version | Text Only | Print | Product List | Glossary On
Versions: 1 2 3 4 5 6 7 8 9 10 11 12
000
FTUS42 KTBW 191732
TAFPGD
TAF
KPGD 191732Z 1918/2018 03006KT P6SM VCSH SCT030 BKN050
     FM192100 35009KT P6SM VCSH SCT035 BKN060
     FM200200 06006KT P6SM FEW050 SCT080
     FM201500 05007KT P6SM FEW035 SCT080=

USA.gov is the U.S. government's official web portal to all federal, state and local government web resources and services.